sensor_id;sensor_type;location;lat;lon;timestamp;temperature;humidity
18597;DHT22;9428;50.950;6.912;2022-08-19T00:02:45;21.40;99.90
18597;DHT22;9428;50.950;6.912;2022-08-19T00:05:33;21.40;99.90
18597;DHT22;9428;50.950;6.912;2022-08-19T00:08:20;21.40;99.90
18597;DHT22;9428;50.950;6.912;2022-08-19T00:11:07;21.40;99.90
18597;DHT22;9428;50.950;6.912;2022-08-19T00:13:55;21.40;99.90
18597;DHT22;9428;50.950;6.912;2022-08-19T00:16:44;21.30;99.90
18597;DHT22;9428;50.950;6.912;2022-08-19T00:19:34;21.20;99.90
18597;DHT22;9428;50.950;6.912;2022-08-19T00:22:22;21.30;99.90
18597;DHT22;9428;50.950;6.912;2022-08-19T00:25:09;21.30;99.90
18597;DHT22;9428;50.950;6.912;2022-08-19T00:27:57;21.20;99.90
18597;DHT22;9428;50.950;6.912;2022-08-19T00:30:45;21.20;99.90
18597;DHT22;9428;50.950;6.912;2022-08-19T00:33:33;21.20;99.90
18597;DHT22;9428;50.950;6.912;2022-08-19T00:36:21;21.20;99.90
18597;DHT22;9428;50.950;6.912;2022-08-19T00:39:10;21.10;99.90
18597;DHT22;9428;50.950;6.912;2022-08-19T00:41:57;21.20;99.90
18597;DHT22;9428;50.950;6.912;2022-08-19T00:44:45;21.10;99.90
18597;DHT22;9428;50.950;6.912;2022-08-19T00:47:32;21.20;99.90
18597;DHT22;9428;50.950;6.912;2022-08-19T00:50:20;21.00;99.90
18597;DHT22;9428;50.950;6.912;2022-08-19T00:53:10;21.10;99.90
18597;DHT22;9428;50.950;6.912;2022-08-19T00:56:00;21.10;99.90
18597;DHT22;9428;50.950;6.912;2022-08-19T00:58:48;21.10;99.90
18597;DHT22;9428;50.950;6.912;2022-08-19T01:01:36;21.10;99.90
18597;DHT22;9428;50.950;6.912;2022-08-19T01:04:23;20.90;99.90
18597;DHT22;9428;50.950;6.912;2022-08-19T01:07:10;21.00;99.90
18597;DHT22;9428;50.950;6.912;2022-08-19T01:10:01;20.80;99.90
18597;DHT22;9428;50.950;6.912;2022-08-19T01:12:49;20.90;99.90
18597;DHT22;9428;50.950;6.912;2022-08-19T01:15:41;20.90;99.90
18597;DHT22;9428;50.950;6.912;2022-08-19T01:18:31;20.80;99.90
18597;DHT22;9428;50.950;6.912;2022-08-19T01:21:24;20.70;99.90
18597;DHT22;9428;50.950;6.912;2022-08-19T01:24:14;20.80;99.90
18597;DHT22;9428;50.950;6.912;2022-08-19T01:27:03;20.80;99.90
18597;DHT22;9428;50.950;6.912;2022-08-19T01:29:51;20.80;99.90
18597;DHT22;9428;50.950;6.912;2022-08-19T01:32:38;20.90;99.90
18597;DHT22;9428;50.950;6.912;2022-08-19T01:35:27;20.90;99.90
18597;DHT22;9428;50.950;6.912;2022-08-19T01:38:20;21.00;99.90
18597;DHT22;9428;50.950;6.912;2022-08-19T01:41:10;20.80;99.90
18597;DHT22;9428;50.950;6.912;2022-08-19T01:43:57;20.90;99.90
18597;DHT22;9428;50.950;6.912;2022-08-19T01:46:45;20.90;99.90
18597;DHT22;9428;50.950;6.912;2022-08-19T01:49:33;20.80;99.90
18597;DHT22;9428;50.950;6.912;2022-08-19T01:52:21;20.70;99.90
18597;DHT22;9428;50.950;6.912;2022-08-19T01:55:11;20.70;99.90
18597;DHT22;9428;50.950;6.912;2022-08-19T01:58:02;20.30;99.90
18597;DHT22;9428;50.950;6.912;2022-08-19T02:00:49;20.60;99.90
18597;DHT22;9428;50.950;6.912;2022-08-19T02:03:37;20.60;99.90
18597;DHT22;9428;50.950;6.912;2022-08-19T02:06:24;20.50;99.90
18597;DHT22;9428;50.950;6.912;2022-08-19T02:09:11;20.50;99.90
18597;DHT22;9428;50.950;6.912;2022-08-19T02:11:58;20.50;99.90
18597;DHT22;9428;50.950;6.912;2022-08-19T02:14:47;20.60;99.90
18597;DHT22;9428;50.950;6.912;2022-08-19T02:17:34;20.70;99.90
18597;DHT22;9428;50.950;6.912;2022-08-19T02:20:21;20.70;99.90
18597;DHT22;9428;50.950;6.912;2022-08-19T02:23:10;20.70;99.90
18597;DHT22;9428;50.950;6.912;2022-08-19T02:25:58;20.60;99.90
18597;DHT22;9428;50.950;6.912;2022-08-19T02:28:45;20.60;99.90
18597;DHT22;9428;50.950;6.912;2022-08-19T02:31:35;20.70;99.90
18597;DHT22;9428;50.950;6.912;2022-08-19T02:34:22;20.70;99.90
18597;DHT22;9428;50.950;6.912;2022-08-19T02:37:10;20.60;99.90
18597;DHT22;9428;50.950;6.912;2022-08-19T02:40:18;20.40;99.90
18597;DHT22;9428;50.950;6.912;2022-08-19T02:43:06;20.60;99.90
18597;DHT22;9428;50.950;6.912;2022-08-19T02:45:54;20.50;99.90
18597;DHT22;9428;50.950;6.912;2022-08-19T02:48:43;20.50;99.90
18597;DHT22;9428;50.950;6.912;2022-08-19T02:51:32;20.40;99.90
18597;DHT22;9428;50.950;6.912;2022-08-19T02:54:19;20.40;99.90
18597;DHT22;9428;50.950;6.912;2022-08-19T02:57:06;20.40;99.90
18597;DHT22;9428;50.950;6.912;2022-08-19T02:59:54;20.30;99.90
18597;DHT22;9428;50.950;6.912;2022-08-19T03:02:41;20.40;99.90
18597;DHT22;9428;50.950;6.912;2022-08-19T03:05:30;20.40;99.90
18597;DHT22;9428;50.950;6.912;2022-08-19T03:08:17;20.10;99.90
18597;DHT22;9428;50.950;6.912;2022-08-19T03:11:05;20.40;99.90
18597;DHT22;9428;50.950;6.912;2022-08-19T03:13:52;20.40;99.90
18597;DHT22;9428;50.950;6.912;2022-08-19T03:16:42;20.50;99.90
18597;DHT22;9428;50.950;6.912;2022-08-19T03:19:29;20.50;99.90
18597;DHT22;9428;50.950;6.912;2022-08-19T03:22:18;20.40;99.90
18597;DHT22;9428;50.950;6.912;2022-08-19T03:25:06;20.30;99.90
18597;DHT22;9428;50.950;6.912;2022-08-19T03:27:53;20.30;99.90
18597;DHT22;9428;50.950;6.912;2022-08-19T03:30:41;20.30;99.90
18597;DHT22;9428;50.950;6.912;2022-08-19T03:33:30;20.40;99.90
18597;DHT22;9428;50.950;6.912;2022-08-19T03:36:20;20.40;99.90
18597;DHT22;9428;50.950;6.912;2022-08-19T03:39:10;20.30;99.90
18597;DHT22;9428;50.950;6.912;2022-08-19T03:41:57;20.20;99.90
18597;DHT22;9428;50.950;6.912;2022-08-19T03:44:45;20.20;99.90
18597;DHT22;9428;50.950;6.912;2022-08-19T03:47:33;20.20;99.90
18597;DHT22;9428;50.950;6.912;2022-08-19T03:50:20;20.20;99.90
18597;DHT22;9428;50.950;6.912;2022-08-19T03:53:07;20.10;99.90
18597;DHT22;9428;50.950;6.912;2022-08-19T03:55:57;20.10;99.90
18597;DHT22;9428;50.950;6.912;2022-08-19T03:58:45;20.10;99.90
18597;DHT22;9428;50.950;6.912;2022-08-19T04:01:32;20.10;99.90
18597;DHT22;9428;50.950;6.912;2022-08-19T04:04:20;20.10;99.90
18597;DHT22;9428;50.950;6.912;2022-08-19T04:07:09;20.00;99.90
18597;DHT22;9428;50.950;6.912;2022-08-19T04:09:56;20.00;99.90
18597;DHT22;9428;50.950;6.912;2022-08-19T04:12:46;20.10;99.90
18597;DHT22;9428;50.950;6.912;2022-08-19T04:15:33;20.10;99.90
18597;DHT22;9428;50.950;6.912;2022-08-19T04:18:25;20.00;99.90
18597;DHT22;9428;50.950;6.912;2022-08-19T04:21:16;20.00;99.90
18597;DHT22;9428;50.950;6.912;2022-08-19T04:24:06;20.10;99.90
18597;DHT22;9428;50.950;6.912;2022-08-19T04:26:55;20.00;99.90
18597;DHT22;9428;50.950;6.912;2022-08-19T04:29:44;19.90;99.90
18597;DHT22;9428;50.950;6.912;2022-08-19T04:32:31;19.90;99.90
18597;DHT22;9428;50.950;6.912;2022-08-19T04:35:18;20.00;99.90
18597;DHT22;9428;50.950;6.912;2022-08-19T04:38:06;20.00;99.90
18597;DHT22;9428;50.950;6.912;2022-08-19T04:40:54;19.90;99.90
18597;DHT22;9428;50.950;6.912;2022-08-19T04:43:58;20.10;99.90
18597;DHT22;9428;50.950;6.912;2022-08-19T04:46:47;19.90;99.90
18597;DHT22;9428;50.950;6.912;2022-08-19T04:49:35;20.10;99.90
18597;DHT22;9428;50.950;6.912;2022-08-19T04:52:22;20.10;99.90
18597;DHT22;9428;50.950;6.912;2022-08-19T04:55:10;20.10;99.90
18597;DHT22;9428;50.950;6.912;2022-08-19T04:57:57;20.00;99.90
18597;DHT22;9428;50.950;6.912;2022-08-19T05:00:44;20.00;99.90
18597;DHT22;9428;50.950;6.912;2022-08-19T05:03:33;20.10;99.90
18597;DHT22;9428;50.950;6.912;2022-08-19T05:06:22;20.00;99.90
18597;DHT22;9428;50.950;6.912;2022-08-19T05:09:09;20.00;99.90
18597;DHT22;9428;50.950;6.912;2022-08-19T05:11:56;20.00;99.90
18597;DHT22;9428;50.950;6.912;2022-08-19T05:14:43;20.00;99.90
18597;DHT22;9428;50.950;6.912;2022-08-19T05:17:31;20.00;99.90
18597;DHT22;9428;50.950;6.912;2022-08-19T05:20:20;19.90;99.90
18597;DHT22;9428;50.950;6.912;2022-08-19T05:23:25;19.90;99.90
18597;DHT22;9428;50.950;6.912;2022-08-19T05:26:12;20.00;99.90
18597;DHT22;9428;50.950;6.912;2022-08-19T05:28:59;19.90;99.90
18597;DHT22;9428;50.950;6.912;2022-08-19T05:31:48;20.00;99.90
18597;DHT22;9428;50.950;6.912;2022-08-19T05:34:36;20.00;99.90
18597;DHT22;9428;50.950;6.912;2022-08-19T05:37:25;20.00;99.90
18597;DHT22;9428;50.950;6.912;2022-08-19T05:40:13;20.10;99.90
18597;DHT22;9428;50.950;6.912;2022-08-19T05:43:00;20.10;99.90
18597;DHT22;9428;50.950;6.912;2022-08-19T05:45:47;20.10;99.90
18597;DHT22;9428;50.950;6.912;2022-08-19T05:48:36;20.20;99.90
18597;DHT22;9428;50.950;6.912;2022-08-19T05:51:24;20.20;99.90
18597;DHT22;9428;50.950;6.912;2022-08-19T05:54:13;20.20;99.90
18597;DHT22;9428;50.950;6.912;2022-08-19T05:57:00;20.10;99.90
18597;DHT22;9428;50.950;6.912;2022-08-19T05:59:48;20.00;99.90
18597;DHT22;9428;50.950;6.912;2022-08-19T06:02:37;20.00;99.90
18597;DHT22;9428;50.950;6.912;2022-08-19T06:05:24;20.00;99.90
18597;DHT22;9428;50.950;6.912;2022-08-19T06:08:11;20.00;99.90
18597;DHT22;9428;50.950;6.912;2022-08-19T06:11:12;20.00;99.90
18597;DHT22;9428;50.950;6.912;2022-08-19T06:14:02;20.10;99.90
18597;DHT22;9428;50.950;6.912;2022-08-19T06:16:50;20.00;99.90
18597;DHT22;9428;50.950;6.912;2022-08-19T06:19:38;20.00;99.90
18597;DHT22;9428;50.950;6.912;2022-08-19T06:22:27;20.00;99.90
18597;DHT22;9428;50.950;6.912;2022-08-19T06:25:15;20.10;99.90
18597;DHT22;9428;50.950;6.912;2022-08-19T06:28:04;20.20;99.90
18597;DHT22;9428;50.950;6.912;2022-08-19T06:30:51;20.20;99.90
18597;DHT22;9428;50.950;6.912;2022-08-19T06:33:38;20.30;99.90
18597;DHT22;9428;50.950;6.912;2022-08-19T06:36:29;20.30;99.90
18597;DHT22;9428;50.950;6.912;2022-08-19T06:39:19;20.40;99.90
18597;DHT22;9428;50.950;6.912;2022-08-19T06:42:07;20.40;99.90
18597;DHT22;9428;50.950;6.912;2022-08-19T06:44:58;20.30;99.90
18597;DHT22;9428;50.950;6.912;2022-08-19T06:47:48;20.30;99.90
18597;DHT22;9428;50.950;6.912;2022-08-19T06:50:35;20.50;99.90
18597;DHT22;9428;50.950;6.912;2022-08-19T06:53:23;20.50;99.90
18597;DHT22;9428;50.950;6.912;2022-08-19T06:56:10;20.50;99.90
18597;DHT22;9428;50.950;6.912;2022-08-19T06:58:59;20.50;99.90
18597;DHT22;9428;50.950;6.912;2022-08-19T07:01:50;20.60;99.90
18597;DHT22;9428;50.950;6.912;2022-08-19T07:04:38;20.60;99.90
18597;DHT22;9428;50.950;6.912;2022-08-19T07:07:25;20.70;99.90
18597;DHT22;9428;50.950;6.912;2022-08-19T07:10:12;20.90;99.90
18597;DHT22;9428;50.950;6.912;2022-08-19T07:12:59;20.90;99.90
18597;DHT22;9428;50.950;6.912;2022-08-19T07:15:48;20.70;99.90
18597;DHT22;9428;50.950;6.912;2022-08-19T07:18:37;20.70;99.90
18597;DHT22;9428;50.950;6.912;2022-08-19T07:21:27;20.80;99.90
18597;DHT22;9428;50.950;6.912;2022-08-19T07:24:15;20.70;99.90
18597;DHT22;9428;50.950;6.912;2022-08-19T07:27:04;20.70;99.90
18597;DHT22;9428;50.950;6.912;2022-08-19T07:29:52;20.80;99.90
18597;DHT22;9428;50.950;6.912;2022-08-19T07:32:40;20.80;99.90
18597;DHT22;9428;50.950;6.912;2022-08-19T07:35:29;20.80;99.90
18597;DHT22;9428;50.950;6.912;2022-08-19T07:38:19;20.80;99.90
18597;DHT22;9428;50.950;6.912;2022-08-19T07:41:07;20.70;99.90
18597;DHT22;9428;50.950;6.912;2022-08-19T07:43:54;20.80;99.90
18597;DHT22;9428;50.950;6.912;2022-08-19T07:46:44;20.70;99.90
18597;DHT22;9428;50.950;6.912;2022-08-19T07:49:31;20.80;99.90
18597;DHT22;9428;50.950;6.912;2022-08-19T07:52:20;20.70;99.90
18597;DHT22;9428;50.950;6.912;2022-08-19T07:55:09;20.70;99.90
18597;DHT22;9428;50.950;6.912;2022-08-19T07:57:57;20.70;99.90
18597;DHT22;9428;50.950;6.912;2022-08-19T08:00:46;20.90;99.90
18597;DHT22;9428;50.950;6.912;2022-08-19T08:03:33;20.90;99.90
18597;DHT22;9428;50.950;6.912;2022-08-19T08:06:38;20.90;99.90
18597;DHT22;9428;50.950;6.912;2022-08-19T08:09:44;20.90;99.90
18597;DHT22;9428;50.950;6.912;2022-08-19T08:12:36;20.90;99.90
18597;DHT22;9428;50.950;6.912;2022-08-19T08:15:27;20.90;99.90
18597;DHT22;9428;50.950;6.912;2022-08-19T08:18:14;21.10;99.90
18597;DHT22;9428;50.950;6.912;2022-08-19T08:21:01;21.10;99.90
18597;DHT22;9428;50.950;6.912;2022-08-19T08:23:48;21.20;99.90
18597;DHT22;9428;50.950;6.912;2022-08-19T08:26:39;21.30;99.90
18597;DHT22;9428;50.950;6.912;2022-08-19T08:29:27;21.40;99.90
18597;DHT22;9428;50.950;6.912;2022-08-19T08:32:15;21.60;99.90
18597;DHT22;9428;50.950;6.912;2022-08-19T08:35:03;21.70;99.90
18597;DHT22;9428;50.950;6.912;2022-08-19T08:37:52;21.90;99.90
18597;DHT22;9428;50.950;6.912;2022-08-19T08:40:44;22.00;99.90
18597;DHT22;9428;50.950;6.912;2022-08-19T08:43:34;22.20;99.90
18597;DHT22;9428;50.950;6.912;2022-08-19T08:46:27;22.40;99.90
18597;DHT22;9428;50.950;6.912;2022-08-19T08:49:26;22.50;99.90
18597;DHT22;9428;50.950;6.912;2022-08-19T08:52:21;22.50;99.90
18597;DHT22;9428;50.950;6.912;2022-08-19T08:55:13;22.80;99.90
18597;DHT22;9428;50.950;6.912;2022-08-19T08:58:04;22.70;99.90
18597;DHT22;9428;50.950;6.912;2022-08-19T09:00:53;22.70;99.90
18597;DHT22;9428;50.950;6.912;2022-08-19T09:03:42;22.80;99.90
18597;DHT22;9428;50.950;6.912;2022-08-19T09:06:36;23.80;99.90
18597;DHT22;9428;50.950;6.912;2022-08-19T09:09:30;22.70;99.90
18597;DHT22;9428;50.950;6.912;2022-08-19T09:12:25;22.70;99.90
18597;DHT22;9428;50.950;6.912;2022-08-19T09:15:25;22.70;99.90
18597;DHT22;9428;50.950;6.912;2022-08-19T09:18:18;22.60;99.90
18597;DHT22;9428;50.950;6.912;2022-08-19T09:21:10;22.60;99.90
18597;DHT22;9428;50.950;6.912;2022-08-19T09:23:58;22.50;99.90
18597;DHT22;9428;50.950;6.912;2022-08-19T09:26:46;22.60;99.90
18597;DHT22;9428;50.950;6.912;2022-08-19T09:29:33;22.70;99.90
18597;DHT22;9428;50.950;6.912;2022-08-19T09:32:22;22.60;99.90
18597;DHT22;9428;50.950;6.912;2022-08-19T09:35:12;22.60;99.90
18597;DHT22;9428;50.950;6.912;2022-08-19T09:37:59;22.70;99.90
18597;DHT22;9428;50.950;6.912;2022-08-19T09:40:47;22.70;99.90
18597;DHT22;9428;50.950;6.912;2022-08-19T09:43:34;22.80;99.90
18597;DHT22;9428;50.950;6.912;2022-08-19T09:46:24;22.80;99.90
18597;DHT22;9428;50.950;6.912;2022-08-19T09:49:12;22.90;99.90
18597;DHT22;9428;50.950;6.912;2022-08-19T09:52:01;22.80;99.90
18597;DHT22;9428;50.950;6.912;2022-08-19T09:54:51;22.90;99.90
18597;DHT22;9428;50.950;6.912;2022-08-19T09:57:39;22.80;99.90
18597;DHT22;9428;50.950;6.912;2022-08-19T10:00:26;22.80;99.90
18597;DHT22;9428;50.950;6.912;2022-08-19T10:03:13;22.90;99.90
18597;DHT22;9428;50.950;6.912;2022-08-19T10:06:03;22.90;99.90
18597;DHT22;9428;50.950;6.912;2022-08-19T10:08:52;23.00;99.90
18597;DHT22;9428;50.950;6.912;2022-08-19T10:11:41;23.10;99.90
18597;DHT22;9428;50.950;6.912;2022-08-19T10:14:28;23.10;99.90
18597;DHT22;9428;50.950;6.912;2022-08-19T10:17:15;23.20;99.90
18597;DHT22;9428;50.950;6.912;2022-08-19T10:20:04;23.30;99.90
18597;DHT22;9428;50.950;6.912;2022-08-19T10:22:52;23.40;99.90
18597;DHT22;9428;50.950;6.912;2022-08-19T10:25:42;23.60;99.90
18597;DHT22;9428;50.950;6.912;2022-08-19T10:28:29;23.90;99.90
18597;DHT22;9428;50.950;6.912;2022-08-19T10:31:18;24.00;99.90
18597;DHT22;9428;50.950;6.912;2022-08-19T10:34:06;24.10;99.90
18597;DHT22;9428;50.950;6.912;2022-08-19T10:36:54;24.10;99.90
18597;DHT22;9428;50.950;6.912;2022-08-19T10:39:41;24.10;99.90
18597;DHT22;9428;50.950;6.912;2022-08-19T10:42:31;24.20;99.90
18597;DHT22;9428;50.950;6.912;2022-08-19T10:45:18;24.10;99.90
18597;DHT22;9428;50.950;6.912;2022-08-19T10:48:07;24.10;99.90
18597;DHT22;9428;50.950;6.912;2022-08-19T10:50:57;24.00;99.90
18597;DHT22;9428;50.950;6.912;2022-08-19T10:54:02;24.00;99.90
18597;DHT22;9428;50.950;6.912;2022-08-19T10:56:49;24.10;99.90
18597;DHT22;9428;50.950;6.912;2022-08-19T10:59:40;24.10;99.90
18597;DHT22;9428;50.950;6.912;2022-08-19T11:02:27;24.10;99.90
18597;DHT22;9428;50.950;6.912;2022-08-19T11:05:14;24.00;99.90
18597;DHT22;9428;50.950;6.912;2022-08-19T11:08:03;23.90;99.90
18597;DHT22;9428;50.950;6.912;2022-08-19T11:10:52;23.90;99.90
18597;DHT22;9428;50.950;6.912;2022-08-19T11:13:41;23.90;99.90
18597;DHT22;9428;50.950;6.912;2022-08-19T11:16:30;23.80;99.90
18597;DHT22;9428;50.950;6.912;2022-08-19T11:19:18;24.00;99.90
18597;DHT22;9428;50.950;6.912;2022-08-19T11:22:08;23.90;99.90
18597;DHT22;9428;50.950;6.912;2022-08-19T11:24:56;24.10;99.90
18597;DHT22;9428;50.950;6.912;2022-08-19T11:27:43;24.30;99.90
18597;DHT22;9428;50.950;6.912;2022-08-19T11:30:31;24.40;99.90
18597;DHT22;9428;50.950;6.912;2022-08-19T11:33:20;24.40;99.90
18597;DHT22;9428;50.950;6.912;2022-08-19T11:36:09;24.30;99.90
18597;DHT22;9428;50.950;6.912;2022-08-19T11:38:57;24.50;99.90
18597;DHT22;9428;50.950;6.912;2022-08-19T11:41:44;24.50;99.90
18597;DHT22;9428;50.950;6.912;2022-08-19T11:44:31;24.40;99.90
18597;DHT22;9428;50.950;6.912;2022-08-19T11:47:19;24.60;99.90
18597;DHT22;9428;50.950;6.912;2022-08-19T11:50:08;24.60;99.90
18597;DHT22;9428;50.950;6.912;2022-08-19T11:52:56;24.60;99.90
18597;DHT22;9428;50.950;6.912;2022-08-19T11:55:44;24.40;99.90
18597;DHT22;9428;50.950;6.912;2022-08-19T11:58:32;24.40;99.90
18597;DHT22;9428;50.950;6.912;2022-08-19T12:01:21;24.30;99.90
18597;DHT22;9428;50.950;6.912;2022-08-19T12:04:09;24.20;99.90
18597;DHT22;9428;50.950;6.912;2022-08-19T12:06:58;24.20;99.90
18597;DHT22;9428;50.950;6.912;2022-08-19T12:09:45;24.10;99.90
18597;DHT22;9428;50.950;6.912;2022-08-19T12:12:33;24.10;99.90
18597;DHT22;9428;50.950;6.912;2022-08-19T12:15:20;24.20;99.90
18597;DHT22;9428;50.950;6.912;2022-08-19T12:18:08;24.20;99.90
18597;DHT22;9428;50.950;6.912;2022-08-19T12:20:55;24.20;99.90
18597;DHT22;9428;50.950;6.912;2022-08-19T12:23:44;24.20;99.90
18597;DHT22;9428;50.950;6.912;2022-08-19T12:26:32;24.20;99.90
18597;DHT22;9428;50.950;6.912;2022-08-19T12:29:20;24.30;99.90
18597;DHT22;9428;50.950;6.912;2022-08-19T12:32:07;24.30;99.90
18597;DHT22;9428;50.950;6.912;2022-08-19T12:34:55;24.50;99.90
18597;DHT22;9428;50.950;6.912;2022-08-19T12:37:42;24.50;99.90
18597;DHT22;9428;50.950;6.912;2022-08-19T12:40:31;24.80;99.90
18597;DHT22;9428;50.950;6.912;2022-08-19T12:43:18;24.70;99.90
18597;DHT22;9428;50.950;6.912;2022-08-19T12:46:06;24.60;99.90
18597;DHT22;9428;50.950;6.912;2022-08-19T12:48:53;24.50;99.90
18597;DHT22;9428;50.950;6.912;2022-08-19T12:51:41;24.60;99.90
18597;DHT22;9428;50.950;6.912;2022-08-19T12:54:29;24.60;99.90
18597;DHT22;9428;50.950;6.912;2022-08-19T12:57:18;24.80;99.90
18597;DHT22;9428;50.950;6.912;2022-08-19T13:00:09;24.90;99.90
18597;DHT22;9428;50.950;6.912;2022-08-19T13:02:58;24.90;99.90
18597;DHT22;9428;50.950;6.912;2022-08-19T13:05:45;24.90;99.90
18597;DHT22;9428;50.950;6.912;2022-08-19T13:08:33;24.80;99.90
18597;DHT22;9428;50.950;6.912;2022-08-19T13:11:20;24.60;99.90
18597;DHT22;9428;50.950;6.912;2022-08-19T13:14:11;24.70;99.90
18597;DHT22;9428;50.950;6.912;2022-08-19T13:16:58;24.60;99.90
18597;DHT22;9428;50.950;6.912;2022-08-19T13:19:48;24.70;99.90
18597;DHT22;9428;50.950;6.912;2022-08-19T13:22:36;25.00;99.90
18597;DHT22;9428;50.950;6.912;2022-08-19T13:25:23;25.00;99.90
18597;DHT22;9428;50.950;6.912;2022-08-19T13:28:12;24.80;99.90
18597;DHT22;9428;50.950;6.912;2022-08-19T13:31:01;24.80;99.90
18597;DHT22;9428;50.950;6.912;2022-08-19T13:34:06;25.00;99.90
18597;DHT22;9428;50.950;6.912;2022-08-19T13:36:53;24.90;99.90
18597;DHT22;9428;50.950;6.912;2022-08-19T13:39:40;25.10;99.90
18597;DHT22;9428;50.950;6.912;2022-08-19T13:42:28;25.10;99.90
18597;DHT22;9428;50.950;6.912;2022-08-19T13:45:17;25.00;99.90
18597;DHT22;9428;50.950;6.912;2022-08-19T13:48:07;25.00;99.90
18597;DHT22;9428;50.950;6.912;2022-08-19T13:50:55;24.90;99.90
18597;DHT22;9428;50.950;6.912;2022-08-19T13:53:43;25.00;99.90
18597;DHT22;9428;50.950;6.912;2022-08-19T13:56:30;25.20;99.90
18597;DHT22;9428;50.950;6.912;2022-08-19T13:59:18;25.20;99.90
18597;DHT22;9428;50.950;6.912;2022-08-19T14:02:05;25.10;99.90
18597;DHT22;9428;50.950;6.912;2022-08-19T14:04:53;25.10;99.90
18597;DHT22;9428;50.950;6.912;2022-08-19T14:07:41;25.10;99.90
18597;DHT22;9428;50.950;6.912;2022-08-19T14:10:28;25.30;99.90
18597;DHT22;9428;50.950;6.912;2022-08-19T14:13:19;25.40;99.90
18597;DHT22;9428;50.950;6.912;2022-08-19T14:16:07;25.40;99.90
18597;DHT22;9428;50.950;6.912;2022-08-19T14:18:55;25.20;99.90
18597;DHT22;9428;50.950;6.912;2022-08-19T14:21:44;25.30;99.90
18597;DHT22;9428;50.950;6.912;2022-08-19T14:24:31;25.30;99.90
18597;DHT22;9428;50.950;6.912;2022-08-19T14:27:18;25.50;99.90
18597;DHT22;9428;50.950;6.912;2022-08-19T14:30:07;25.30;99.90
18597;DHT22;9428;50.950;6.912;2022-08-19T14:32:56;25.30;99.90
18597;DHT22;9428;50.950;6.912;2022-08-19T14:35:43;25.30;99.90
18597;DHT22;9428;50.950;6.912;2022-08-19T14:38:32;25.40;99.90
18597;DHT22;9428;50.950;6.912;2022-08-19T14:41:21;25.30;99.90
18597;DHT22;9428;50.950;6.912;2022-08-19T14:44:09;25.40;99.90
18597;DHT22;9428;50.950;6.912;2022-08-19T14:46:58;25.40;99.90
18597;DHT22;9428;50.950;6.912;2022-08-19T14:49:45;25.40;99.90
18597;DHT22;9428;50.950;6.912;2022-08-19T14:52:32;25.40;99.90
18597;DHT22;9428;50.950;6.912;2022-08-19T14:55:21;25.50;99.90
18597;DHT22;9428;50.950;6.912;2022-08-19T14:58:08;25.50;99.90
18597;DHT22;9428;50.950;6.912;2022-08-19T15:00:57;25.60;99.90
18597;DHT22;9428;50.950;6.912;2022-08-19T15:03:44;25.40;99.90
18597;DHT22;9428;50.950;6.912;2022-08-19T15:06:31;25.50;99.90
18597;DHT22;9428;50.950;6.912;2022-08-19T15:09:18;25.50;99.90
18597;DHT22;9428;50.950;6.912;2022-08-19T15:12:07;25.50;99.90
18597;DHT22;9428;50.950;6.912;2022-08-19T15:14:56;25.40;99.90
18597;DHT22;9428;50.950;6.912;2022-08-19T15:17:43;25.50;99.90
18597;DHT22;9428;50.950;6.912;2022-08-19T15:20:32;25.70;99.90
18597;DHT22;9428;50.950;6.912;2022-08-19T15:23:19;25.80;99.90
18597;DHT22;9428;50.950;6.912;2022-08-19T15:26:07;25.70;99.90
18597;DHT22;9428;50.950;6.912;2022-08-19T15:28:57;25.50;99.90
18597;DHT22;9428;50.950;6.912;2022-08-19T15:31:45;25.40;99.90
18597;DHT22;9428;50.950;6.912;2022-08-19T15:34:32;25.60;99.90
18597;DHT22;9428;50.950;6.912;2022-08-19T15:37:20;25.50;99.90
18597;DHT22;9428;50.950;6.912;2022-08-19T15:40:09;26.00;99.90
18597;DHT22;9428;50.950;6.912;2022-08-19T15:42:56;25.80;99.90
18597;DHT22;9428;50.950;6.912;2022-08-19T15:45:47;25.90;99.90
18597;DHT22;9428;50.950;6.912;2022-08-19T15:48:36;25.80;99.90
18597;DHT22;9428;50.950;6.912;2022-08-19T15:51:24;25.80;99.90
18597;DHT22;9428;50.950;6.912;2022-08-19T15:54:14;25.70;99.90
18597;DHT22;9428;50.950;6.912;2022-08-19T15:57:01;25.60;99.90
18597;DHT22;9428;50.950;6.912;2022-08-19T16:00:07;25.50;99.90
18597;DHT22;9428;50.950;6.912;2022-08-19T16:03:14;25.40;99.90
18597;DHT22;9428;50.950;6.912;2022-08-19T16:06:19;25.40;99.90
18597;DHT22;9428;50.950;6.912;2022-08-19T16:09:13;25.40;99.90
18597;DHT22;9428;50.950;6.912;2022-08-19T16:12:03;25.20;99.90
18597;DHT22;9428;50.950;6.912;2022-08-19T16:14:51;25.20;99.90
18597;DHT22;9428;50.950;6.912;2022-08-19T16:17:38;25.20;99.90
18597;DHT22;9428;50.950;6.912;2022-08-19T16:20:27;25.10;99.90
18597;DHT22;9428;50.950;6.912;2022-08-19T16:23:14;25.20;99.90
18597;DHT22;9428;50.950;6.912;2022-08-19T16:26:02;25.20;99.90
18597;DHT22;9428;50.950;6.912;2022-08-19T16:28:49;25.10;99.90
18597;DHT22;9428;50.950;6.912;2022-08-19T16:31:37;25.10;99.90
18597;DHT22;9428;50.950;6.912;2022-08-19T16:34:24;25.10;99.90
18597;DHT22;9428;50.950;6.912;2022-08-19T16:37:13;25.10;99.90
18597;DHT22;9428;50.950;6.912;2022-08-19T16:40:02;25.10;99.90
18597;DHT22;9428;50.950;6.912;2022-08-19T16:42:50;25.00;99.90
18597;DHT22;9428;50.950;6.912;2022-08-19T16:45:38;25.00;99.90
18597;DHT22;9428;50.950;6.912;2022-08-19T16:48:27;25.00;99.90
18597;DHT22;9428;50.950;6.912;2022-08-19T16:51:15;25.00;99.90
18597;DHT22;9428;50.950;6.912;2022-08-19T16:54:05;24.90;99.90
18597;DHT22;9428;50.950;6.912;2022-08-19T16:56:52;24.90;99.90
18597;DHT22;9428;50.950;6.912;2022-08-19T16:59:40;24.90;99.90
18597;DHT22;9428;50.950;6.912;2022-08-19T17:02:29;24.90;99.90
18597;DHT22;9428;50.950;6.912;2022-08-19T17:05:16;24.90;99.90
18597;DHT22;9428;50.950;6.912;2022-08-19T17:08:04;24.90;99.90
18597;DHT22;9428;50.950;6.912;2022-08-19T17:10:54;24.90;99.90
18597;DHT22;9428;50.950;6.912;2022-08-19T17:13:42;24.90;99.90
18597;DHT22;9428;50.950;6.912;2022-08-19T17:16:31;24.80;99.90
18597;DHT22;9428;50.950;6.912;2022-08-19T17:19:19;24.80;99.90
18597;DHT22;9428;50.950;6.912;2022-08-19T17:22:07;24.70;99.90
18597;DHT22;9428;50.950;6.912;2022-08-19T17:24:55;24.70;99.90
18597;DHT22;9428;50.950;6.912;2022-08-19T17:27:43;24.60;99.90
18597;DHT22;9428;50.950;6.912;2022-08-19T17:30:31;24.60;99.90
18597;DHT22;9428;50.950;6.912;2022-08-19T17:33:18;24.60;99.90
18597;DHT22;9428;50.950;6.912;2022-08-19T17:36:06;24.40;99.90
18597;DHT22;9428;50.950;6.912;2022-08-19T17:38:55;24.20;99.90
18597;DHT22;9428;50.950;6.912;2022-08-19T17:41:42;24.00;99.90
18597;DHT22;9428;50.950;6.912;2022-08-19T17:44:31;23.90;99.90
18597;DHT22;9428;50.950;6.912;2022-08-19T17:47:21;24.00;99.90
18597;DHT22;9428;50.950;6.912;2022-08-19T17:50:09;24.10;99.90
18597;DHT22;9428;50.950;6.912;2022-08-19T17:52:57;24.00;99.90
18597;DHT22;9428;50.950;6.912;2022-08-19T17:55:46;24.00;99.90
18597;DHT22;9428;50.950;6.912;2022-08-19T17:58:33;24.00;99.90
18597;DHT22;9428;50.950;6.912;2022-08-19T18:01:22;24.00;99.90
18597;DHT22;9428;50.950;6.912;2022-08-19T18:04:09;24.00;99.90